Time;durP1;ratioP1;P1;durP2;ratioP2;P2;SDS_P1;SDS_P2;PMS_P1;PMS_P2;Temp;Humidity;BMP_temperature;BMP_pressure;BME280_temperature;BME280_humidity;BME280_pressure;Samples;Min_cycle;Max_cycle;Signal;HPM_P1;HPM_P2
2023/11/03 00:00:48;;;;;;;17.43;11.17;;;;;21.60;96934.00;;;;2061191;28;20226;-55
2023/11/03 00:01:49;;;;;;;15.37;11.43;;;;;22.00;96937.00;;;;2058824;28;20289;-56
2023/11/03 00:02:49;;;;;;;13.97;10.67;;;;;22.00;96940.00;;;;2056071;28;20288;-56
2023/11/03 00:03:49;;;;;;;14.63;10.47;;;;;21.90;96933.00;;;;2059038;28;20219;-56
2023/11/03 00:04:51;;;;;;;12.80;9.50;;;;;21.90;96936.00;;;;2060880;28;20215;-56
2023/11/03 00:05:52;;;;;;;12.50;10.25;;;;;21.60;96926.00;;;;2064113;28;20559;-55
2023/11/03 00:06:53;;;;;;;13.90;9.53;;;;;21.90;96932.00;;;;2060870;28;20224;-56
2023/11/03 00:07:54;;;;;;;13.57;9.23;;;;;22.00;96933.00;;;;2053919;28;20231;-55
2023/11/03 00:08:54;;;;;;;11.93;8.90;;;;;22.00;96935.00;;;;2061969;28;20988;-56
2023/11/03 00:09:55;;;;;;;13.30;8.83;;;;;21.30;96934.00;;;;2063191;28;20242;-56
2023/11/03 00:10:56;;;;;;;9.30;7.87;;;;;21.90;96931.00;;;;2063920;28;20277;-55
2023/11/03 00:11:56;;;;;;;10.43;7.70;;;;;21.90;96942.00;;;;2056038;28;20479;-56
2023/11/03 00:12:56;;;;;;;10.93;7.87;;;;;21.90;96946.00;;;;2051557;28;20259;-55
2023/11/03 00:13:57;;;;;;;12.23;8.53;;;;;21.90;96944.00;;;;2062841;28;20215;-56
2023/11/03 00:14:57;;;;;;;13.47;7.27;;;;;21.90;96943.00;;;;2055634;28;20219;-56
2023/11/03 00:15:58;;;;;;;11.23;7.20;;;;;21.90;96959.00;;;;2059815;28;20797;-56
2023/11/03 00:16:59;;;;;;;10.13;7.83;;;;;21.90;96961.00;;;;2060396;28;20331;-56
2023/11/03 00:17:59;;;;;;;10.55;8.00;;;;;21.90;96942.00;;;;2046335;28;20219;-55
2023/11/03 00:19:03;;;;;;;11.37;7.97;;;;;21.90;96952.00;;;;2062755;28;20304;-56
2023/11/03 00:20:06;;;;;;;10.30;7.45;;;;;21.90;96956.00;;;;2063129;28;20593;-56
2023/11/03 00:21:06;;;;;;;11.02;7.25;;;;;21.90;96953.00;;;;2054545;28;20301;-56
2023/11/03 00:22:06;;;;;;;10.10;7.30;;;;;21.90;96953.00;;;;2061260;28;20273;-56
2023/11/03 00:23:07;;;;;;;9.60;6.90;;;;;21.90;96972.00;;;;2052299;28;20229;-56
2023/11/03 00:24:08;;;;;;;7.80;6.50;;;;;21.90;96962.00;;;;2060877;28;20250;-56
2023/11/03 00:25:13;;;;;;;9.83;6.50;;;;;21.90;96964.00;;;;2054156;28;20699;-56
2023/11/03 00:26:13;;;;;;;10.70;6.32;;;;;21.90;96957.00;;;;2052343;28;20498;-56
2023/11/03 00:27:14;;;;;;;8.90;6.50;;;;;21.90;96814.00;;;;2048219;28;20582;-57
2023/11/03 00:28:15;;;;;;;9.40;6.27;;;;;21.80;96956.00;;;;2061084;28;20884;-56
2023/11/03 00:29:15;;;;;;;9.63;6.63;;;;;21.90;96965.00;;;;2069434;28;20225;-56
2023/11/03 00:30:16;;;;;;;7.60;6.10;;;;;21.80;96955.00;;;;2054155;28;20455;-56
2023/11/03 00:31:16;;;;;;;7.33;5.70;;;;;21.80;96960.00;;;;2064380;28;20583;-57
2023/11/03 00:32:16;;;;;;;12.17;6.00;;;;;21.90;96960.00;;;;2049897;28;20211;-57
2023/11/03 00:33:17;;;;;;;7.47;6.07;;;;;21.90;96956.00;;;;2068068;28;20218;-57
2023/11/03 00:34:18;;;;;;;9.43;6.10;;;;;21.90;96962.00;;;;2060226;28;20564;-57
2023/11/03 00:35:18;;;;;;;8.53;6.60;;;;;21.90;96964.00;;;;2062087;28;20210;-56
2023/11/03 00:36:19;;;;;;;9.30;6.30;;;;;21.80;96962.00;;;;2074617;28;20205;-58
2023/11/03 00:37:19;;;;;;;8.97;6.33;;;;;21.80;96957.00;;;;2052163;28;20211;-57
2023/11/03 00:38:19;;;;;;;11.43;6.73;;;;;21.80;96958.00;;;;2063148;28;20621;-58
2023/11/03 00:39:20;;;;;;;10.47;6.97;;;;;21.80;96967.00;;;;2061682;28;20203;-56
2023/11/03 00:40:20;;;;;;;8.83;5.87;;;;;21.80;96969.00;;;;2062374;28;20721;-56
2023/11/03 00:41:20;;;;;;;8.47;5.70;;;;;21.80;96978.00;;;;2061473;28;20274;-56
2023/11/03 00:42:21;;;;;;;11.37;6.47;;;;;21.80;96974.00;;;;2052971;28;20245;-55
2023/11/03 00:43:21;;;;;;;9.60;6.50;;;;;21.80;96969.00;;;;2073883;28;20214;-57
2023/11/03 00:44:25;;;;;;;8.90;5.70;;;;;21.80;96978.00;;;;2066359;28;20320;-56
2023/11/03 00:45:26;;;;;;;7.72;5.50;;;;;21.80;96977.00;;;;2058316;28;20268;-57
2023/11/03 00:46:26;;;;;;;8.50;5.47;;;;;21.80;96978.00;;;;2054352;28;20263;-57
2023/11/03 00:47:26;;;;;;;8.80;5.40;;;;;21.80;96980.00;;;;2051721;28;20590;-57
2023/11/03 00:48:27;;;;;;;8.03;6.13;;;;;21.80;96976.00;;;;2068033;28;20251;-56
2023/11/03 00:49:28;;;;;;;9.50;5.38;;;;;21.80;96987.00;;;;2061741;28;20203;-56
2023/11/03 00:50:28;;;;;;;7.57;5.50;;;;;21.80;96967.00;;;;2061131;28;20793;-56
2023/11/03 00:51:28;;;;;;;7.77;5.50;;;;;21.80;96970.00;;;;2059350;28;20241;-57
2023/11/03 00:52:29;;;;;;;7.37;5.10;;;;;21.80;96988.00;;;;2047268;28;20262;-56
2023/11/03 00:53:29;;;;;;;7.43;5.10;;;;;21.80;96978.00;;;;2061592;28;20222;-56
2023/11/03 00:54:30;;;;;;;7.70;5.10;;;;;21.80;96973.00;;;;2060967;28;20631;-56
2023/11/03 00:55:30;;;;;;;6.10;5.03;;;;;21.80;96976.00;;;;2061197;28;20218;-57
2023/11/03 00:56:34;;;;;;;7.43;5.50;;;;;21.80;96984.00;;;;2060261;28;20241;-56
2023/11/03 00:57:36;;;;;;;7.13;4.53;;;;;21.80;96975.00;;;;2060176;28;20225;-56
2023/11/03 00:58:36;;;;;;;8.20;4.38;;;;;21.80;96985.00;;;;2068826;28;20246;-57
2023/11/03 00:59:37;;;;;;;7.07;4.70;;;;;21.80;96993.00;;;;2062790;28;20207;-57
2023/11/03 01:00:41;;;;;;;6.77;4.63;;;;;21.80;97009.00;;;;2059774;28;20226;-56
2023/11/03 01:01:41;;;;;;;6.38;4.57;;;;;21.70;96982.00;;;;2059445;28;20217;-57
2023/11/03 01:02:41;;;;;;;5.83;4.73;;;;;21.70;96993.00;;;;2048517;28;20211;-57
2023/11/03 01:03:42;;;;;;;7.50;5.07;;;;;21.70;96981.00;;;;2061327;28;20207;-57
2023/11/03 01:04:42;;;;;;;6.60;4.50;;;;;21.70;96919.00;;;;2056894;28;20569;-57
2023/11/03 01:05:44;;;;;;;6.83;4.30;;;;;21.80;96985.00;;;;2057075;28;20578;-57
2023/11/03 01:06:45;;;;;;;5.50;3.92;;;;;21.70;97003.00;;;;2061277;28;20214;-57
2023/11/03 01:07:45;;;;;;;6.10;4.17;;;;;21.80;96996.00;;;;2055824;28;20298;-56
2023/11/03 01:08:45;;;;;;;6.30;4.00;;;;;21.80;96992.00;;;;2058407;28;20247;-57
2023/11/03 01:09:46;;;;;;;6.23;4.10;;;;;21.70;96992.00;;;;2061217;28;20212;-57
2023/11/03 01:10:47;;;;;;;5.80;4.10;;;;;21.80;96988.00;;;;2054683;28;20283;-57
2023/11/03 01:11:48;;;;;;;6.18;3.78;;;;;21.70;96996.00;;;;2056127;28;20226;-56
2023/11/03 01:12:50;;;;;;;5.27;4.10;;;;;21.80;96990.00;;;;2044846;28;20594;-57
2023/11/03 01:13:50;;;;;;;6.55;4.20;;;;;21.70;96998.00;;;;2058008;28;20218;-56
2023/11/03 01:14:52;;;;;;;4.90;3.50;;;;;21.80;97011.00;;;;2060750;28;20258;-57
2023/11/03 01:15:52;;;;;;;6.28;3.90;;;;;21.80;97002.00;;;;2055967;28;20219;-56
2023/11/03 01:16:52;;;;;;;7.83;4.10;;;;;21.70;96998.00;;;;2057441;28;20307;-57
2023/11/03 01:17:53;;;;;;;4.97;3.30;;;;;21.70;96998.00;;;;2043473;28;20707;-56
2023/11/03 01:18:54;;;;;;;4.80;3.87;;;;;21.70;97003.00;;;;2056691;28;20231;-57
2023/11/03 01:19:55;;;;;;;5.55;4.25;;;;;21.70;96987.00;;;;2056038;28;20231;-56
2023/11/03 01:20:57;;;;;;;5.57;3.78;;;;;21.70;96999.00;;;;2055684;28;20222;-56
2023/11/03 01:21:59;;;;;;;4.20;3.45;;;;;21.70;96983.00;;;;2057079;28;20293;-57
2023/11/03 01:22:59;;;;;;;5.53;3.92;;;;;21.70;96991.00;;;;2042802;28;20277;-56
2023/11/03 01:24:00;;;;;;;6.03;4.00;;;;;21.70;96990.00;;;;2053949;28;20274;-54
2023/11/03 01:25:00;;;;;;;4.73;3.50;;;;;21.70;96989.00;;;;2053133;28;20247;-56
2023/11/03 01:26:01;;;;;;;5.40;3.20;;;;;21.40;96997.00;;;;2059492;28;20341;-57
2023/11/03 01:27:04;;;;;;;4.85;3.15;;;;;21.70;97001.00;;;;2057707;28;20816;-57
2023/11/03 01:28:05;;;;;;;5.70;3.70;;;;;21.70;96988.00;;;;2044218;28;20235;-57
2023/11/03 01:29:06;;;;;;;5.05;3.50;;;;;21.70;97001.00;;;;2060951;28;20223;-56
2023/11/03 01:30:07;;;;;;;6.30;3.30;;;;;21.70;96988.00;;;;2060602;28;20734;-55
2023/11/03 01:31:08;;;;;;;5.15;3.55;;;;;21.70;96999.00;;;;2065982;28;20222;-56
2023/11/03 01:32:09;;;;;;;4.75;3.65;;;;;21.70;96989.00;;;;2055020;28;20262;-57
2023/11/03 01:33:09;;;;;;;3.50;2.83;;;;;21.70;96988.00;;;;2048213;28;20233;-56
2023/11/03 01:34:09;;;;;;;5.80;3.90;;;;;21.60;96985.00;;;;2062334;28;20293;-57
2023/11/03 01:35:10;;;;;;;5.60;3.50;;;;;21.70;96993.00;;;;2054030;28;20215;-55
2023/11/03 01:36:10;;;;;;;3.93;3.40;;;;;21.70;96989.00;;;;2066060;28;20230;-54
2023/11/03 01:37:11;;;;;;;4.80;3.20;;;;;21.70;96983.00;;;;2054567;28;20234;-56
2023/11/03 01:38:11;;;;;;;5.93;3.37;;;;;21.70;97004.00;;;;2047064;28;20250;-56
2023/11/03 01:39:11;;;;;;;4.60;2.63;;;;;21.70;97000.00;;;;2060304;28;20223;-56
2023/11/03 01:40:14;;;;;;;3.90;2.90;;;;;21.70;97020.00;;;;2060746;28;20242;-55
2023/11/03 01:41:15;;;;;;;7.15;2.90;;;;;21.70;97004.00;;;;2061395;28;20226;-56
2023/11/03 01:42:15;;;;;;;5.22;3.33;;;;;21.70;97011.00;;;;2058305;28;20242;-56
2023/11/03 01:43:15;;;;;;;7.40;3.10;;;;;21.70;97014.00;;;;2060609;28;20233;-54
2023/11/03 01:44:17;;;;;;;4.07;2.43;;;;;21.70;97000.00;;;;2060159;28;20223;-56
2023/11/03 01:45:17;;;;;;;3.17;2.45;;;;;21.70;97013.00;;;;2061190;28;20225;-56
2023/11/03 01:46:18;;;;;;;7.00;2.80;;;;;21.60;97012.00;;;;2052909;28;20235;-56
2023/11/03 01:47:18;;;;;;;5.90;2.53;;;;;21.70;97014.00;;;;2050666;28;20219;-54
2023/11/03 01:48:18;;;;;;;4.73;2.40;;;;;21.60;97005.00;;;;2068200;28;20225;-55
2023/11/03 01:49:19;;;;;;;5.57;2.60;;;;;21.60;97022.00;;;;2068117;28;20257;-56
2023/11/03 01:50:19;;;;;;;4.60;2.20;;;;;21.70;97017.00;;;;2067637;28;21130;-56
2023/11/03 01:51:19;;;;;;;4.47;2.40;;;;;21.60;97052.00;;;;2059761;28;20242;-57
2023/11/03 01:52:20;;;;;;;4.23;2.50;;;;;21.60;97026.00;;;;2040573;28;20306;-55
2023/11/03 01:53:21;;;;;;;4.30;2.33;;;;;21.20;97027.00;;;;2036331;28;20789;-56
2023/11/03 01:54:21;;;;;;;4.50;2.50;;;;;21.70;97012.00;;;;2036476;28;20229;-54
2023/11/03 01:55:21;;;;;;;4.13;2.00;;;;;21.70;97019.00;;;;2067150;28;20589;-60
2023/11/03 01:56:22;;;;;;;3.10;1.80;;;;;21.70;97006.00;;;;2067216;28;20249;-60
2023/11/03 01:57:22;;;;;;;3.30;2.00;;;;;21.70;97010.00;;;;2040535;28;20291;-56
2023/11/03 01:58:23;;;;;;;3.60;2.37;;;;;21.60;97014.00;;;;2059741;28;20214;-58
2023/11/03 01:59:23;;;;;;;4.23;2.60;;;;;21.60;97021.00;;;;2056000;28;20230;-56
2023/11/03 02:00:25;;;;;;;3.83;2.20;;;;;21.60;97005.00;;;;2060052;28;21175;-56
2023/11/03 02:01:27;;;;;;;5.65;2.25;;;;;21.60;97017.00;;;;2057965;28;20221;-56
2023/11/03 02:02:27;;;;;;;3.85;2.45;;;;;21.60;97020.00;;;;2047239;28;20284;-56
2023/11/03 02:03:28;;;;;;;3.20;2.03;;;;;21.60;97038.00;;;;2052243;28;20262;-58
2023/11/03 02:04:28;;;;;;;4.23;1.97;;;;;21.60;97028.00;;;;2066703;28;20470;-57
2023/11/03 02:05:28;;;;;;;4.20;2.63;;;;;21.60;97026.00;;;;2060918;28;20222;-58
2023/11/03 02:06:29;;;;;;;3.33;1.90;;;;;21.60;97034.00;;;;2059779;28;20658;-54
2023/11/03 02:07:29;;;;;;;9.80;2.77;;;;;21.60;97035.00;;;;2048999;28;20722;-56
2023/11/03 02:08:30;;;;;;;3.00;2.10;;;;;21.60;97041.00;;;;2044876;28;20248;-55
2023/11/03 02:09:30;;;;;;;3.87;1.80;;;;;21.60;97034.00;;;;2063996;28;20233;-56
2023/11/03 02:10:30;;;;;;;3.30;1.83;;;;;21.60;97040.00;;;;2061025;28;20215;-57
2023/11/03 02:11:31;;;;;;;2.50;1.70;;;;;21.60;97040.00;;;;2065651;28;20222;-56
2023/11/03 02:12:31;;;;;;;3.73;2.07;;;;;21.60;97039.00;;;;2042524;28;20875;-55
2023/11/03 02:13:35;;;;;;;2.63;1.80;;;;;21.60;97035.00;;;;2053389;28;20228;-56
2023/11/03 02:14:35;;;;;;;3.28;2.15;;;;;21.60;97039.00;;;;2059162;28;20218;-54
2023/11/03 02:15:37;;;;;;;3.37;1.93;;;;;21.60;97045.00;;;;2060874;28;20296;-56
2023/11/03 02:16:37;;;;;;;3.78;1.80;;;;;21.60;97042.00;;;;2059142;28;20286;-56
2023/11/03 02:17:38;;;;;;;3.33;1.93;;;;;21.60;97045.00;;;;2047933;28;20415;-54
2023/11/03 02:18:39;;;;;;;3.37;1.70;;;;;21.60;97040.00;;;;2055569;28;20252;-56
2023/11/03 02:19:39;;;;;;;3.53;2.20;;;;;21.60;97050.00;;;;2060553;28;20211;-56
2023/11/03 02:20:39;;;;;;;4.20;1.83;;;;;21.60;97048.00;;;;2067233;28;20206;-56
2023/11/03 02:21:41;;;;;;;2.07;1.40;;;;;21.60;97056.00;;;;2058028;28;20246;-54
2023/11/03 02:22:41;;;;;;;3.90;1.85;;;;;21.60;97080.00;;;;2057867;28;20221;-56
2023/11/03 02:23:42;;;;;;;2.43;1.47;;;;;21.60;97053.00;;;;2065502;28;20622;-54
2023/11/03 02:24:43;;;;;;;4.63;1.67;;;;;21.60;97040.00;;;;2059769;28;20631;-55
2023/11/03 02:25:43;;;;;;;3.60;1.57;;;;;21.60;97037.00;;;;2059283;28;20660;-57
2023/11/03 02:26:44;;;;;;;3.03;1.43;;;;;21.60;97042.00;;;;2067407;28;21967;-57
2023/11/03 02:27:45;;;;;;;2.85;1.38;;;;;21.60;97055.00;;;;2048005;28;20292;-56
2023/11/03 02:28:45;;;;;;;2.70;1.33;;;;;21.60;97052.00;;;;2057739;28;20691;-56
2023/11/03 02:29:46;;;;;;;3.83;1.80;;;;;21.60;97047.00;;;;2055270;28;20866;-56
2023/11/03 02:30:46;;;;;;;2.73;1.30;;;;;21.60;97056.00;;;;2056942;28;20737;-56
2023/11/03 02:31:47;;;;;;;2.57;1.53;;;;;21.60;97056.00;;;;2059378;28;20450;-56
2023/11/03 02:32:47;;;;;;;3.30;1.80;;;;;21.50;97051.00;;;;2048005;28;20442;-56
2023/11/03 02:33:48;;;;;;;3.23;1.40;;;;;21.50;97045.00;;;;2061039;28;20265;-57
2023/11/03 02:34:49;;;;;;;2.20;1.37;;;;;21.60;97056.00;;;;2054149;28;20239;-54
2023/11/03 02:35:49;;;;;;;2.90;1.67;;;;;21.50;97052.00;;;;2063127;28;20694;-56
2023/11/03 02:36:50;;;;;;;2.13;1.10;;;;;21.50;97052.00;;;;2059365;28;20226;-56
2023/11/03 02:37:50;;;;;;;2.20;1.20;;;;;21.60;97063.00;;;;2051040;28;20219;-57
2023/11/03 02:38:52;;;;;;;4.77;1.53;;;;;21.50;97051.00;;;;2061126;28;20242;-54
2023/11/03 02:39:52;;;;;;;3.78;1.40;;;;;21.60;97047.00;;;;2056178;28;20218;-56
2023/11/03 02:40:54;;;;;;;2.50;1.20;;;;;21.50;97057.00;;;;2060340;28;20234;-56
2023/11/03 02:41:54;;;;;;;3.40;1.60;;;;;21.50;97047.00;;;;2059624;28;20237;-55
2023/11/03 02:42:55;;;;;;;3.47;1.77;;;;;21.60;97046.00;;;;2046038;28;21041;-54
2023/11/03 02:43:55;;;;;;;2.47;1.53;;;;;21.50;97043.00;;;;2052442;28;20227;-55
2023/11/03 02:44:55;;;;;;;3.90;1.73;;;;;21.50;97041.00;;;;2056860;28;20302;-56
2023/11/03 02:45:56;;;;;;;2.80;1.27;;;;;21.50;97044.00;;;;2059989;28;20231;-55
2023/11/03 02:46:56;;;;;;;2.50;1.40;;;;;21.50;97048.00;;;;2058872;28;20250;-56
2023/11/03 02:47:57;;;;;;;2.10;1.20;;;;;21.50;97039.00;;;;2049803;28;20235;-59
2023/11/03 02:48:57;;;;;;;2.07;1.30;;;;;21.50;97039.00;;;;2056245;28;20243;-59
2023/11/03 02:49:58;;;;;;;2.67;1.37;;;;;21.50;97031.00;;;;2058593;28;20289;-54
2023/11/03 02:50:59;;;;;;;3.63;1.30;;;;;21.50;97045.00;;;;2060387;28;20234;-56
2023/11/03 02:51:59;;;;;;;2.13;1.40;;;;;21.50;97045.00;;;;2062541;28;20569;-55
2023/11/03 02:52:59;;;;;;;3.23;1.60;;;;;21.50;97054.00;;;;2059450;28;20582;-55
2023/11/03 02:54:00;;;;;;;2.83;1.30;;;;;21.50;97051.00;;;;2066341;28;20746;-54
2023/11/03 02:55:00;;;;;;;1.77;1.20;;;;;21.50;97045.00;;;;2061831;28;20239;-56
2023/11/03 02:56:00;;;;;;;5.10;1.67;;;;;21.50;97036.00;;;;2053058;28;20280;-55
2023/11/03 02:57:01;;;;;;;7.50;1.40;;;;;21.50;97044.00;;;;2059587;28;20289;-56
2023/11/03 02:58:02;;;;;;;2.60;1.17;;;;;21.50;97028.00;;;;2050678;28;20211;-57
2023/11/03 02:59:02;;;;;;;2.85;1.33;;;;;21.50;97048.00;;;;2058098;28;20211;-55
2023/11/03 03:00:04;;;;;;;3.13;1.20;;;;;21.50;97050.00;;;;2056368;28;20223;-56
2023/11/03 03:01:08;;;;;;;2.20;1.20;;;;;21.50;97055.00;;;;2060638;28;20852;-56
2023/11/03 03:02:09;;;;;;;2.30;1.10;;;;;21.50;97043.00;;;;2061782;28;20211;-54
2023/11/03 03:03:09;;;;;;;2.70;1.63;;;;;21.50;97057.00;;;;2053573;28;20211;-56
2023/11/03 03:04:10;;;;;;;3.40;1.13;;;;;21.50;97037.00;;;;2065969;28;20261;-57
2023/11/03 03:05:10;;;;;;;2.63;1.20;;;;;21.50;97082.00;;;;2058450;28;20207;-57
2023/11/03 03:06:10;;;;;;;2.00;1.17;;;;;21.50;97039.00;;;;2049678;28;20551;-55
2023/11/03 03:07:11;;;;;;;1.93;1.10;;;;;21.50;97035.00;;;;2054319;28;20278;-56
2023/11/03 03:08:11;;;;;;;2.00;1.20;;;;;21.50;97046.00;;;;2043443;28;20219;-56
2023/11/03 03:09:15;;;;;;;1.83;1.07;;;;;21.40;97045.00;;;;2053852;28;20457;-55
2023/11/03 03:10:15;;;;;;;2.95;1.20;;;;;21.40;97042.00;;;;2052107;28;20219;-55
2023/11/03 03:11:16;;;;;;;2.60;1.37;;;;;21.50;97050.00;;;;2056764;28;20939;-56
2023/11/03 03:12:17;;;;;;;1.40;0.70;;;;;21.50;97042.00;;;;2046014;28;20581;-56
2023/11/03 03:13:17;;;;;;;1.98;1.08;;;;;21.50;97049.00;;;;2049716;28;20228;-56
2023/11/03 03:14:17;;;;;;;2.53;1.23;;;;;21.50;97046.00;;;;2046452;28;20255;-56
2023/11/03 03:15:18;;;;;;;1.83;0.80;;;;;21.50;97040.00;;;;2058278;28;20771;-56
2023/11/03 03:16:19;;;;;;;2.10;1.00;;;;;21.40;97053.00;;;;2058672;28;20948;-56
2023/11/03 03:17:19;;;;;;;2.45;1.00;;;;;21.50;97053.00;;;;2050482;28;20265;-56
2023/11/03 03:18:19;;;;;;;5.00;1.30;;;;;21.50;97070.00;;;;2065592;28;20727;-55
2023/11/03 03:19:20;;;;;;;2.97;1.20;;;;;21.50;97054.00;;;;2060352;28;20704;-56
2023/11/03 03:20:20;;;;;;;1.70;1.03;;;;;21.50;97047.00;;;;2054595;28;20220;-56
2023/11/03 03:21:21;;;;;;;1.10;0.60;;;;;21.50;97043.00;;;;2059573;28;20226;-57
2023/11/03 03:22:22;;;;;;;1.60;1.00;;;;;21.50;97053.00;;;;2045243;28;20226;-56
2023/11/03 03:23:22;;;;;;;1.90;1.00;;;;;21.50;97053.00;;;;2060480;28;20229;-56
2023/11/03 03:24:22;;;;;;;2.37;0.80;;;;;21.40;97043.00;;;;2065251;28;20242;-56
2023/11/03 03:25:23;;;;;;;1.73;0.73;;;;;21.40;97047.00;;;;2059676;28;20247;-56
2023/11/03 03:26:23;;;;;;;1.80;0.70;;;;;21.40;97045.00;;;;2052063;28;20229;-56
2023/11/03 03:27:23;;;;;;;1.97;0.93;;;;;21.40;97039.00;;;;2046181;28;20215;-54
2023/11/03 03:28:24;;;;;;;1.63;1.03;;;;;21.40;97039.00;;;;2058674;28;20679;-55
2023/11/03 03:29:24;;;;;;;3.90;0.90;;;;;21.40;97046.00;;;;2052616;28;20219;-55
2023/11/03 03:30:25;;;;;;;1.70;1.00;;;;;21.40;97044.00;;;;2057155;28;20735;-55
2023/11/03 03:31:25;;;;;;;3.23;0.90;;;;;21.40;97042.00;;;;2060143;28;20231;-55
2023/11/03 03:32:25;;;;;;;1.57;0.80;;;;;21.40;97036.00;;;;2050645;28;20218;-56
2023/11/03 03:33:26;;;;;;;2.33;0.90;;;;;21.40;97048.00;;;;2060559;28;20222;-54
2023/11/03 03:34:26;;;;;;;1.53;0.80;;;;;21.40;97054.00;;;;2060820;28;20235;-56
2023/11/03 03:35:26;;;;;;;1.93;1.10;;;;;21.40;97044.00;;;;2066187;28;20218;-55
2023/11/03 03:36:27;;;;;;;1.63;0.90;;;;;21.40;97033.00;;;;2060539;28;20246;-56
2023/11/03 03:37:27;;;;;;;3.00;0.80;;;;;21.40;97047.00;;;;2053590;28;20399;-57
2023/11/03 03:38:27;;;;;;;1.83;0.90;;;;;21.40;97051.00;;;;2061373;28;20223;-57
2023/11/03 03:39:28;;;;;;;1.70;0.87;;;;;20.90;97047.00;;;;2056024;28;20243;-57
2023/11/03 03:40:28;;;;;;;1.87;1.00;;;;;21.40;97035.00;;;;2061233;28;20302;-54
2023/11/03 03:41:28;;;;;;;2.20;0.90;;;;;21.40;97050.00;;;;2060002;28;20633;-56
2023/11/03 03:42:29;;;;;;;1.43;0.80;;;;;21.40;97054.00;;;;2050284;28;20575;-56
2023/11/03 03:43:29;;;;;;;2.30;0.80;;;;;21.40;97062.00;;;;2060620;28;20258;-56
2023/11/03 03:44:30;;;;;;;1.70;0.83;;;;;21.40;97050.00;;;;2059928;28;20233;-56
2023/11/03 03:45:30;;;;;;;1.07;0.67;;;;;21.40;97055.00;;;;2049050;28;20275;-56
2023/11/03 03:46:36;;;;;;;1.93;0.73;;;;;21.40;97063.00;;;;2053506;28;20219;-55
2023/11/03 03:47:37;;;;;;;1.10;0.60;;;;;21.40;97060.00;;;;2042923;28;20242;-54
2023/11/03 03:48:38;;;;;;;1.43;0.80;;;;;21.40;97061.00;;;;2053341;28;20701;-56
2023/11/03 03:49:38;;;;;;;1.50;0.87;;;;;21.40;97061.00;;;;2056829;28;20840;-56
2023/11/03 03:50:38;;;;;;;1.50;0.60;;;;;21.40;97074.00;;;;2059856;28;20584;-56
2023/11/03 03:51:39;;;;;;;1.73;0.90;;;;;21.40;97068.00;;;;2063673;28;20730;-54
2023/11/03 03:52:39;;;;;;;2.20;0.90;;;;;21.40;97071.00;;;;2049965;28;20777;-55
2023/11/03 03:53:40;;;;;;;1.97;0.80;;;;;21.40;97077.00;;;;2059414;28;20698;-54
2023/11/03 03:54:40;;;;;;;1.30;0.67;;;;;21.40;97054.00;;;;2059427;28;20234;-55
2023/11/03 03:55:40;;;;;;;1.60;0.77;;;;;21.40;97069.00;;;;2060011;28;20739;-56
2023/11/03 03:56:41;;;;;;;2.33;0.90;;;;;21.40;97061.00;;;;2064907;28;20211;-56
2023/11/03 03:57:41;;;;;;;3.57;1.00;;;;;21.40;97073.00;;;;2049310;28;20288;-55
2023/11/03 03:58:41;;;;;;;3.03;0.80;;;;;21.40;97073.00;;;;2061291;28;20217;-55
2023/11/03 03:59:42;;;;;;;1.10;0.60;;;;;21.40;97070.00;;;;2061489;28;20250;-55
2023/11/03 04:00:42;;;;;;;2.03;0.83;;;;;21.40;97074.00;;;;2060153;28;20343;-55
2023/11/03 04:01:43;;;;;;;1.67;0.70;;;;;21.40;97071.00;;;;2066922;28;20248;-56
2023/11/03 04:02:43;;;;;;;1.50;0.80;;;;;21.40;97076.00;;;;2058900;28;20230;-56
2023/11/03 04:03:43;;;;;;;1.30;0.70;;;;;21.40;97083.00;;;;2068380;28;20206;-54
2023/11/03 04:04:44;;;;;;;1.83;0.87;;;;;21.40;97079.00;;;;2060515;28;20215;-54
2023/11/03 04:05:44;;;;;;;2.83;0.93;;;;;21.30;97074.00;;;;2063813;28;20221;-55
2023/11/03 04:06:45;;;;;;;1.20;0.90;;;;;21.40;97076.00;;;;2068273;28;20214;-56
2023/11/03 04:07:45;;;;;;;3.17;0.97;;;;;21.40;97082.00;;;;2051115;28;20223;-55
2023/11/03 04:08:45;;;;;;;0.90;0.50;;;;;21.40;97077.00;;;;2065748;28;20244;-56
2023/11/03 04:09:46;;;;;;;2.30;0.70;;;;;21.40;97074.00;;;;2061943;28;20268;-54
2023/11/03 04:10:46;;;;;;;1.10;0.50;;;;;21.40;97080.00;;;;2061749;28;20202;-54
2023/11/03 04:11:46;;;;;;;1.70;0.80;;;;;21.40;97071.00;;;;2053700;28;20206;-56
2023/11/03 04:12:47;;;;;;;1.73;0.80;;;;;21.40;97069.00;;;;2045891;28;20220;-56
2023/11/03 04:13:48;;;;;;;1.60;0.80;;;;;21.40;97068.00;;;;2068153;28;20212;-56
2023/11/03 04:14:48;;;;;;;2.03;1.00;;;;;21.30;97070.00;;;;2060376;28;20215;-55
2023/11/03 04:15:48;;;;;;;2.20;1.20;;;;;21.30;97070.00;;;;2060981;28;20207;-55
2023/11/03 04:16:49;;;;;;;1.10;0.50;;;;;21.40;97068.00;;;;2052994;28;20212;-56
2023/11/03 04:17:49;;;;;;;1.43;0.70;;;;;21.40;97074.00;;;;2051508;28;20316;-56
2023/11/03 04:18:50;;;;;;;2.10;0.97;;;;;21.30;97075.00;;;;2060145;28;20218;-56
2023/11/03 04:19:50;;;;;;;2.30;0.80;;;;;21.40;97062.00;;;;2056135;28;20742;-54
2023/11/03 04:20:51;;;;;;;1.47;0.60;;;;;21.40;97077.00;;;;2070970;28;20332;-55
2023/11/03 04:21:51;;;;;;;3.07;0.70;;;;;21.30;97084.00;;;;2062773;28;20214;-56
2023/11/03 04:22:51;;;;;;;1.77;0.73;;;;;21.40;97084.00;;;;2049310;28;20219;-56
2023/11/03 04:23:52;;;;;;;2.70;0.77;;;;;21.30;97082.00;;;;2063081;28;20270;-56
2023/11/03 04:24:52;;;;;;;1.77;0.80;;;;;21.30;97082.00;;;;2067518;28;20221;-56
2023/11/03 04:25:53;;;;;;;1.63;0.70;;;;;21.40;97098.00;;;;2061257;28;20245;-55
2023/11/03 04:26:54;;;;;;;1.43;0.80;;;;;21.40;97092.00;;;;2058763;28;20591;-56
2023/11/03 04:27:54;;;;;;;7.10;0.93;;;;;21.30;97097.00;;;;2054218;28;20226;-56
2023/11/03 04:28:54;;;;;;;1.57;0.80;;;;;21.40;97102.00;;;;2067500;28;20457;-56
2023/11/03 04:29:55;;;;;;;1.30;0.73;;;;;21.30;97090.00;;;;2063300;28;20218;-54
2023/11/03 04:30:55;;;;;;;1.97;0.60;;;;;21.30;97086.00;;;;2065228;28;20719;-54
2023/11/03 04:31:56;;;;;;;1.40;0.80;;;;;21.30;96941.00;;;;2063167;28;20246;-55
2023/11/03 04:32:56;;;;;;;1.87;0.70;;;;;21.30;97085.00;;;;2055157;28;21675;-55
2023/11/03 04:33:56;;;;;;;1.53;0.80;;;;;21.30;97085.00;;;;2061770;28;21082;-56
2023/11/03 04:34:58;;;;;;;2.10;1.00;;;;;21.30;97088.00;;;;2061842;28;20284;-56
2023/11/03 04:35:58;;;;;;;1.70;0.80;;;;;21.30;97103.00;;;;2061748;28;20269;-57
2023/11/03 04:36:59;;;;;;;1.73;0.80;;;;;21.30;97086.00;;;;2067703;28;21056;-55
2023/11/03 04:37:59;;;;;;;1.73;0.60;;;;;21.30;97142.00;;;;2056460;28;20215;-56
2023/11/03 04:38:59;;;;;;;1.73;0.80;;;;;21.30;97089.00;;;;2053735;28;20600;-54
2023/11/03 04:40:00;;;;;;;1.90;0.70;;;;;21.30;97081.00;;;;2061279;28;20691;-54
2023/11/03 04:41:00;;;;;;;1.27;0.60;;;;;21.30;97093.00;;;;2062058;28;20686;-56
2023/11/03 04:42:01;;;;;;;1.83;0.73;;;;;21.30;97083.00;;;;2060815;28;20695;-57
2023/11/03 04:43:01;;;;;;;1.90;0.97;;;;;21.30;97086.00;;;;2052061;28;20215;-56
2023/11/03 04:44:02;;;;;;;2.47;0.70;;;;;21.30;97089.00;;;;2061208;28;20779;-54
2023/11/03 04:45:03;;;;;;;1.27;0.70;;;;;21.30;97091.00;;;;2062063;28;20442;-57
2023/11/03 04:46:03;;;;;;;1.83;0.70;;;;;21.30;97105.00;;;;2061053;28;20638;-57
2023/11/03 04:47:05;;;;;;;2.00;0.70;;;;;21.30;97087.00;;;;2059439;28;20208;-57
2023/11/03 04:48:05;;;;;;;1.55;0.70;;;;;21.30;97090.00;;;;2048213;28;20222;-55
2023/11/03 04:49:07;;;;;;;2.47;0.87;;;;;21.30;97098.00;;;;2061015;28;20219;-55
2023/11/03 04:50:10;;;;;;;1.73;0.70;;;;;21.30;97104.00;;;;2062109;28;20211;-55
2023/11/03 04:51:11;;;;;;;1.48;0.63;;;;;21.30;97107.00;;;;2057339;28;20234;-55
2023/11/03 04:52:11;;;;;;;1.30;0.50;;;;;21.30;97101.00;;;;2064350;28;20207;-56
2023/11/03 04:53:11;;;;;;;1.30;0.70;;;;;21.20;97108.00;;;;2047612;28;20215;-56
2023/11/03 04:54:12;;;;;;;2.33;0.70;;;;;21.30;97111.00;;;;2059312;28;20219;-56
2023/11/03 04:55:13;;;;;;;2.90;0.60;;;;;21.30;97108.00;;;;2056922;28;20227;-54
2023/11/03 04:56:13;;;;;;;1.77;0.60;;;;;21.30;97105.00;;;;2056778;28;20258;-55
2023/11/03 04:57:16;;;;;;;2.07;0.80;;;;;21.20;97121.00;;;;2047248;28;20453;-58
2023/11/03 04:58:17;;;;;;;1.52;0.60;;;;;21.30;97125.00;;;;2058323;28;20237;-54
2023/11/03 04:59:17;;;;;;;1.67;0.63;;;;;21.20;97119.00;;;;2066383;28;20939;-56
2023/11/03 05:00:18;;;;;;;1.80;0.70;;;;;21.30;97124.00;;;;2068836;28;20698;-56
2023/11/03 05:01:19;;;;;;;3.40;0.83;;;;;21.20;97130.00;;;;2066384;28;20225;-56
2023/11/03 05:02:20;;;;;;;1.98;0.90;;;;;21.20;97149.00;;;;2054791;28;20474;-56
2023/11/03 05:03:20;;;;;;;1.93;0.53;;;;;21.30;97132.00;;;;2058263;28;20222;-55